Time;durP1;ratioP1;P1;durP2;ratioP2;P2;SDS_P1;SDS_P2;PMS_P1;PMS_P2;Temp;Humidity;BMP_temperature;BMP_pressure;BME280_temperature;BME280_humidity;BME280_pressure;Samples;Min_cycle;Max_cycle;Signal;HPM_P1;HPM_P2
2021/01/20 00:01:43;;;;;;;1.70;1.00;;;;;;;2.35;75.74;96033.97;5022892;28;20038;-51
2021/01/20 00:04:11;;;;;;;2.90;1.30;;;;;;;2.29;78.04;96026.56;5020957;28;20065;-48
2021/01/20 00:06:39;;;;;;;2.92;1.52;;;;;;;1.88;81.13;96032.78;5018604;28;20045;-52
2021/01/20 00:09:06;;;;;;;5.63;1.27;;;;;;;1.62;83.33;96030.16;5025060;28;20052;-51
2021/01/20 00:11:33;;;;;;;1.52;0.90;;;;;;;1.82;81.20;96022.78;5024240;28;20045;-46
2021/01/20 00:13:59;;;;;;;1.33;0.73;;;;;;;1.96;79.41;96020.13;5018463;28;20519;-49
2021/01/20 00:16:26;;;;;;;1.75;0.90;;;;;;;1.93;78.73;96019.47;5020186;28;20037;-50
2021/01/20 00:18:54;;;;;;;1.63;0.93;;;;;;;1.83;78.97;96020.09;5009622;28;20042;-48
2021/01/20 00:21:21;;;;;;;2.95;1.20;;;;;;;1.77;79.24;96017.91;5021360;28;20055;-51
2021/01/20 00:23:50;;;;;;;2.50;1.50;;;;;;;1.82;79.05;96014.97;5018913;28;20045;-50
2021/01/20 00:26:17;;;;;;;1.65;1.08;;;;;;;1.83;79.76;96014.06;5023103;28;20052;-53
2021/01/20 00:28:44;;;;;;;1.92;0.90;;;;;;;1.96;78.82;96011.47;5026309;28;20554;-50
2021/01/20 00:31:11;;;;;;;1.45;0.80;;;;;;;2.01;77.62;96010.22;5007993;28;20033;-49
2021/01/20 00:33:39;;;;;;;1.35;0.77;;;;;;;1.96;77.42;96008.88;5019328;28;20039;-51
2021/01/20 00:36:06;;;;;;;2.13;0.77;;;;;;;1.60;79.45;96008.63;5013715;28;20503;-52
2021/01/20 00:38:33;;;;;;;;;;;;;;;1.46;81.52;96016.47;5016740;28;20040;-51
2021/01/20 00:41:01;;;;;;;2.30;0.80;;;;;;;1.38;82.69;96014.38;5023339;28;19927;-50
2021/01/20 00:43:29;;;;;;;2.15;1.23;;;;;;;1.34;85.35;96012.06;5024556;28;20099;-51
2021/01/20 00:45:56;;;;;;;1.85;1.10;;;;;;;1.16;86.25;96008.91;5023370;28;20515;-49
2021/01/20 00:48:23;;;;;;;2.55;1.40;;;;;;;1.20;89.19;96005.16;5023633;28;20041;-48
2021/01/20 00:50:53;;;;;;;2.00;1.02;;;;;;;1.21;89.69;96004.25;5027494;28;20053;-48
2021/01/20 00:53:21;;;;;;;2.15;1.17;;;;;;;0.82;90.47;96008.44;5023226;28;20545;-51
2021/01/20 00:55:48;;;;;;;1.23;0.80;;;;;;;0.62;93.61;96008.84;5020701;28;20052;-50
2021/01/20 00:58:17;;;;;;;3.85;1.10;;;;;;;0.51;93.42;96006.91;5022572;28;20049;-51
2021/01/20 01:00:44;;;;;;;1.10;0.80;;;;;;;0.49;95.72;96007.97;5017539;28;20052;-49
2021/01/20 01:03:11;;;;;;;1.83;0.90;;;;;;;0.46;95.86;96006.38;5017473;28;20037;-51
2021/01/20 01:05:42;;;;;;;1.90;0.95;;;;;;;0.42;97.45;96008.31;5027519;28;20044;-49
2021/01/20 01:08:09;;;;;;;0.90;0.80;;;;;;;0.33;98.62;96010.63;5011054;28;20398;-53
2021/01/20 01:10:41;;;;;;;2.10;0.88;;;;;;;0.19;99.87;96004.53;5034674;28;20096;-51
2021/01/20 01:13:13;;;;;;;2.78;1.00;;;;;;;0.15;100.00;96010.00;5022582;28;20404;-50
2021/01/20 01:15:52;;;;;;;2.90;0.90;;;;;;;0.18;100.00;96007.22;5024183;28;20050;-48
2021/01/20 01:18:19;;;;;;;;;;;;;;;0.20;100.00;96011.38;5019447;28;20098;-52
2021/01/20 01:20:46;;;;;;;;;;;;;;;0.28;100.00;96005.75;5028878;28;19931;-50
2021/01/20 01:23:13;;;;;;;;;;;;;;;0.30;100.00;96013.41;5025283;28;19927;-48
2021/01/20 01:25:41;;;;;;;1.83;0.88;;;;;;;0.37;100.00;96009.53;5019441;28;19974;-49
2021/01/20 01:28:12;;;;;;;1.80;0.73;;;;;;;0.66;100.00;96023.31;5020202;28;20045;-50
2021/01/20 01:30:47;;;;;;;2.08;1.17;;;;;;;0.64;100.00;96017.38;5028591;28;20069;-51
2021/01/20 01:33:15;;;;;;;1.98;1.00;;;;;;;0.69;100.00;96018.78;5018686;28;20128;-51
2021/01/20 01:35:44;;;;;;;1.65;0.70;;;;;;;0.84;100.00;96014.38;5023626;28;20042;-48
2021/01/20 01:38:11;;;;;;;2.28;1.00;;;;;;;0.91;99.08;96014.81;5014669;28;20053;-50
2021/01/20 01:40:46;;;;;;;3.67;1.02;;;;;;;0.92;98.06;96019.06;5032798;28;20509;-50
2021/01/20 01:43:33;;;;;;;1.67;0.90;;;;;;;0.90;98.13;96018.34;5022712;28;20041;-50
2021/01/20 01:46:29;;;;;;;1.30;0.88;;;;;;;0.88;97.92;96012.41;5008938;28;20042;-48
2021/01/20 01:49:16;;;;;;;1.95;1.10;;;;;;;0.90;97.18;96014.00;5022657;28;20041;-51
2021/01/20 01:51:43;;;;;;;3.20;1.10;;;;;;;0.89;97.08;96006.28;5023273;28;20496;-48
2021/01/20 01:54:44;;;;;;;2.47;0.90;;;;;;;0.79;97.75;96008.66;4990877;28;20420;-49
2021/01/20 01:57:31;;;;;;;1.27;0.90;;;;;;;0.69;98.99;96003.19;5032367;28;20114;-51
2021/01/20 01:59:59;;;;;;;1.55;0.88;;;;;;;0.73;99.64;95997.81;5018146;28;20452;-49
2021/01/20 02:02:55;;;;;;;1.20;0.90;;;;;;;0.82;99.43;95984.25;5021826;28;20033;-49
2021/01/20 02:05:27;;;;;;;2.67;0.98;;;;;;;0.86;98.70;95986.56;5005381;28;20044;-54
2021/01/20 02:07:57;;;;;;;1.58;0.82;;;;;;;0.85;98.58;95987.47;5023990;28;20087;-54
2021/01/20 02:10:32;;;;;;;3.38;1.10;;;;;;;0.97;98.17;95979.88;5017319;28;20059;-52
2021/01/20 02:13:11;;;;;;;1.42;1.00;;;;;;;0.85;98.25;95984.88;5021947;28;20555;-52
2021/01/20 02:16:03;;;;;;;3.65;0.90;;;;;;;0.80;98.26;95978.34;5022182;28;21433;-50
2021/01/20 02:18:31;;;;;;;1.63;0.95;;;;;;;0.74;99.22;95983.91;5020226;28;20049;-49
2021/01/20 02:21:38;;;;;;;1.48;0.90;;;;;;;0.46;100.00;95986.47;5018274;28;20034;-49
2021/01/20 02:24:48;;;;;;;2.28;0.95;;;;;;;0.15;100.00;95978.88;5020629;28;20049;-48
2021/01/20 02:27:42;;;;;;;2.42;0.90;;;;;;;0.24;100.00;95978.31;5018892;28;20049;-49
2021/01/20 02:30:11;;;;;;;2.47;0.90;;;;;;;0.30;100.00;95974.53;5038814;28;20046;-49
2021/01/20 02:32:57;;;;;;;1.70;0.82;;;;;;;0.26;100.00;95980.81;5026191;28;20395;-48
2021/01/20 02:35:51;;;;;;;1.42;0.80;;;;;;;0.25;100.00;95981.75;5013875;28;20048;-50
2021/01/20 02:38:19;;;;;;;2.63;1.15;;;;;;;0.29;100.00;95983.25;5023773;28;20064;-49
2021/01/20 02:40:54;;;;;;;1.08;0.85;;;;;;;0.26;100.00;95983.41;5020126;28;20117;-47
2021/01/20 02:43:40;;;;;;;1.52;0.80;;;;;;;0.40;100.00;95973.84;5021839;28;20045;-48
2021/01/20 02:46:27;;;;;;;1.20;0.80;;;;;;;0.36;100.00;95985.34;5028232;28;20045;-49
2021/01/20 02:48:57;;;;;;;2.95;1.00;;;;;;;0.33;100.00;95984.72;5011052;28;20107;-51
2021/01/20 02:51:28;;;;;;;1.70;0.80;;;;;;;0.31;100.00;95977.03;5012381;28;20419;-48
2021/01/20 02:54:17;;;;;;;1.83;0.82;;;;;;;0.36;100.00;95969.78;5018535;28;20045;-50
2021/01/20 02:57:10;;;;;;;4.18;0.95;;;;;;;0.53;100.00;95970.53;5023599;28;20048;-52
2021/01/20 02:59:48;;;;;;;1.90;1.00;;;;;;;0.43;99.57;95962.47;5014856;28;20157;-51
2021/01/20 03:02:40;;;;;;;3.35;1.00;;;;;;;0.51;98.68;95951.59;5025723;28;20041;-49
2021/01/20 03:05:08;;;;;;;2.08;0.93;;;;;;;0.48;97.87;95957.81;5024484;28;20099;-51
2021/01/20 03:07:37;;;;;;;1.30;0.77;;;;;;;0.47;98.20;95956.97;5038582;28;20042;-52
2021/01/20 03:10:07;;;;;;;1.52;0.90;;;;;;;0.52;98.46;95948.94;5026444;28;20570;-50
2021/01/20 03:12:34;;;;;;;2.03;1.10;;;;;;;0.62;96.65;95952.63;5017782;28;20046;-48
2021/01/20 03:15:05;;;;;;;1.55;0.95;;;;;;;0.55;96.79;95953.06;5021866;28;20129;-49
2021/01/20 03:17:32;;;;;;;2.15;1.00;;;;;;;0.43;96.88;95952.09;5020727;28;20061;-52
2021/01/20 03:20:01;;;;;;;2.17;1.02;;;;;;;0.41;97.71;95949.59;5019444;28;20037;-51
2021/01/20 03:22:28;;;;;;;1.27;0.93;;;;;;;0.44;97.40;95956.34;5019877;28;20041;-49
2021/01/20 03:24:55;;;;;;;1.90;0.80;;;;;;;0.38;96.42;95956.72;5020885;28;20064;-47
2021/01/20 03:27:22;;;;;;;1.42;0.90;;;;;;;0.34;96.49;95950.06;5024787;28;20036;-50
2021/01/20 03:29:49;;;;;;;1.55;1.05;;;;;;;0.41;96.20;95951.34;5022947;28;20050;-49
2021/01/20 03:32:15;;;;;;;1.75;0.80;;;;;;;0.65;94.58;95946.38;5022612;28;20462;-49
2021/01/20 03:34:43;;;;;;;2.05;0.93;;;;;;;0.76;93.40;95943.09;5019623;28;20503;-48
2021/01/20 03:37:11;;;;;;;2.05;0.93;;;;;;;0.90;91.73;95941.31;5025249;28;20050;-48
2021/01/20 03:39:38;;;;;;;1.80;1.00;;;;;;;0.91;91.37;95944.75;5024310;28;20057;-50
2021/01/20 03:42:05;;;;;;;2.85;1.00;;;;;;;0.92;91.60;95934.25;5022402;28;20041;-51
2021/01/20 03:44:32;;;;;;;1.00;0.60;;;;;;;0.80;91.63;95936.81;5021799;28;20044;-49
2021/01/20 03:47:00;;;;;;;0.82;0.70;;;;;;;0.62;92.30;95931.00;5020878;28;20378;-50
2021/01/20 03:49:27;;;;;;;1.50;0.70;;;;;;;0.33;93.61;95936.25;5022163;28;21158;-53
2021/01/20 03:51:54;;;;;;;1.30;1.00;;;;;;;0.16;95.00;95934.72;5021639;28;20432;-51
2021/01/20 03:54:22;;;;;;;1.48;0.90;;;;;;;0.18;96.22;95932.88;5022127;28;20132;-49
2021/01/20 03:56:49;;;;;;;2.75;0.93;;;;;;;0.13;96.26;95942.66;5026927;28;20033;-48
2021/01/20 03:59:16;;;;;;;1.42;0.90;;;;;;;0.12;96.04;95935.84;5024998;28;20073;-47
2021/01/20 04:01:43;;;;;;;1.30;0.80;;;;;;;0.08;95.52;95939.53;5023581;28;20499;-47
2021/01/20 04:04:11;;;;;;;1.27;0.80;;;;;;;-0.03;95.11;95931.59;5024203;28;20033;-47
2021/01/20 04:06:38;;;;;;;1.90;0.70;;;;;;;-0.22;96.17;95924.09;5020854;28;20077;-53
2021/01/20 04:09:06;;;;;;;1.38;0.93;;;;;;;-0.34;96.68;95936.03;5025836;28;20068;-51
2021/01/20 04:11:34;;;;;;;1.73;0.80;;;;;;;-0.49;97.79;95935.16;5023218;28;20041;-48
2021/01/20 04:14:01;;;;;;;1.73;0.90;;;;;;;-0.56;97.98;95931.25;5019644;28;20138;-51
2021/01/20 04:16:28;;;;;;;1.92;0.88;;;;;;;-0.50;98.00;95938.66;5022921;28;20092;-50
2021/01/20 04:18:56;;;;;;;1.83;0.90;;;;;;;-0.51;98.06;95933.59;5026640;28;20033;-51
2021/01/20 04:21:23;;;;;;;2.13;0.90;;;;;;;-0.52;97.24;95926.72;5023192;28;20038;-50
2021/01/20 04:23:50;;;;;;;1.20;0.80;;;;;;;-0.54;97.50;95926.00;5024703;28;20095;-49
2021/01/20 04:26:18;;;;;;;;;;;;;;;-0.86;96.33;95928.72;5019281;28;20052;-51
2021/01/20 04:28:47;;;;;;;2.42;1.20;;;;;;;-1.44;100.00;95934.56;5017267;28;19932;-48
2021/01/20 04:31:14;;;;;;;3.03;1.30;;;;;;;-1.32;100.00;95930.47;5033221;28;20055;-50
2021/01/20 04:33:42;;;;;;;3.65;1.02;;;;;;;-1.08;100.00;95929.09;5018995;28;20057;-53
2021/01/20 04:36:09;;;;;;;2.13;0.95;;;;;;;-0.99;100.00;95931.16;5015336;28;20038;-49
2021/01/20 04:38:36;;;;;;;1.70;1.00;;;;;;;-1.10;100.00;95924.91;5025069;28;20042;-48
2021/01/20 04:41:03;;;;;;;2.83;1.10;;;;;;;-1.35;100.00;95918.53;5017119;28;20050;-45
2021/01/20 04:43:30;;;;;;;1.90;1.10;;;;;;;-1.42;100.00;95924.97;5016360;28;20108;-50
2021/01/20 04:45:59;;;;;;;2.38;1.13;;;;;;;-1.69;100.00;95916.97;5019637;28;20149;-51
2021/01/20 04:48:31;;;;;;;2.00;1.23;;;;;;;-1.83;100.00;95917.72;5020794;28;20033;-50
2021/01/20 04:51:02;;;;;;;2.15;1.20;;;;;;;-1.83;100.00;95919.47;5022037;28;20076;-48
2021/01/20 04:53:30;;;;;;;;;;;;;;;-1.92;100.00;95919.06;5017024;28;20046;-48
2021/01/20 04:56:03;;;;;;;3.10;1.20;;;;;;;-1.95;100.00;95920.97;5019881;28;20031;-53
2021/01/20 04:58:30;;;;;;;1.88;1.17;;;;;;;-1.94;100.00;95923.47;5014940;28;20522;-49
2021/01/20 05:00:59;;;;;;;1.98;1.40;;;;;;;-1.64;100.00;95925.31;5020607;28;20054;-48
2021/01/20 05:03:26;;;;;;;2.70;1.60;;;;;;;-1.74;100.00;95914.66;5022137;28;20083;-48
2021/01/20 05:05:54;;;;;;;3.53;1.73;;;;;;;-1.86;100.00;95915.28;5022415;28;20328;-50
2021/01/20 05:08:22;;;;;;;2.58;1.45;;;;;;;-1.95;100.00;95918.38;5019857;28;20033;-51
2021/01/20 05:10:50;;;;;;;4.25;1.75;;;;;;;-1.92;100.00;95928.56;5025019;28;20132;-48
2021/01/20 05:13:25;;;;;;;4.10;1.55;;;;;;;-1.88;100.00;95917.16;5020373;28;20049;-52
2021/01/20 05:15:52;;;;;;;4.32;1.85;;;;;;;-1.80;100.00;95920.13;5023048;28;20049;-47
2021/01/20 05:18:21;;;;;;;2.15;1.33;;;;;;;-1.82;100.00;95927.16;5020917;28;20053;-48
2021/01/20 05:20:49;;;;;;;2.15;1.25;;;;;;;-1.89;100.00;95919.78;5019126;28;20041;-49
2021/01/20 05:23:16;;;;;;;2.55;1.30;;;;;;;-1.89;100.00;95927.53;5018995;28;20034;-48
2021/01/20 05:25:43;;;;;;;2.03;1.20;;;;;;;-1.87;100.00;95928.31;5022744;28;20092;-48
2021/01/20 05:28:16;;;;;;;2.47;1.20;;;;;;;-1.92;100.00;95925.97;5020119;28;20049;-50
2021/01/20 05:30:48;;;;;;;2.70;1.20;;;;;;;-1.98;100.00;95921.97;5021402;28;20045;-48
2021/01/20 05:33:16;;;;;;;2.05;1.00;;;;;;;-2.06;100.00;95929.31;5000343;28;20049;-47
2021/01/20 05:35:45;;;;;;;3.30;1.20;;;;;;;-2.10;100.00;95917.44;5027745;28;20048;-48
2021/01/20 05:38:14;;;;;;;2.35;1.10;;;;;;;-2.02;100.00;95911.88;5033932;23;20040;-52
2021/01/20 05:40:42;;;;;;;4.25;1.02;;;;;;;-2.12;100.00;95914.13;5021218;28;20053;-55
2021/01/20 05:43:09;;;;;;;4.43;1.33;;;;;;;-2.24;100.00;95917.31;5036069;28;20033;-55
2021/01/20 05:45:45;;;;;;;1.55;1.10;;;;;;;-2.27;100.00;95922.66;5020901;28;20045;-51
2021/01/20 05:48:12;;;;;;;5.05;1.80;;;;;;;-2.47;100.00;95913.38;5032893;28;20117;-50
2021/01/20 05:50:57;;;;;;;2.35;1.30;;;;;;;-2.44;100.00;95908.06;5042474;28;20036;-54
2021/01/20 05:53:24;;;;;;;3.63;1.30;;;;;;;-2.43;100.00;95907.13;5025538;28;20048;-55
2021/01/20 05:56:02;;;;;;;2.83;1.40;;;;;;;-2.44;100.00;95908.88;5025106;28;20053;-52
2021/01/20 05:58:39;;;;;;;2.33;1.40;;;;;;;-2.34;100.00;95908.41;5024254;28;20038;-54
2021/01/20 06:01:10;;;;;;;2.28;1.50;;;;;;;-2.53;100.00;95919.69;5025469;28;20687;-53
2021/01/20 06:03:37;;;;;;;2.53;1.50;;;;;;;-2.63;100.00;95921.88;5016895;28;20521;-49
2021/01/20 06:06:07;;;;;;;3.72;1.83;;;;;;;-2.64;100.00;95912.50;5025369;28;20389;-56
2021/01/20 06:08:36;;;;;;;4.17;1.90;;;;;;;-2.56;100.00;95909.50;5012736;28;20060;-52
2021/01/20 06:11:03;;;;;;;4.68;2.03;;;;;;;-2.52;100.00;95916.19;5040181;28;20041;-52
2021/01/20 06:13:30;;;;;;;4.15;1.80;;;;;;;-2.43;100.00;95912.31;5020963;28;20040;-53
2021/01/20 06:15:59;;;;;;;6.55;3.17;;;;;;;-2.33;100.00;95918.66;5020237;28;20103;-54
2021/01/20 06:18:28;;;;;;;10.75;3.92;;;;;;;-2.30;100.00;95913.34;5031785;28;20462;-55
2021/01/20 06:20:56;;;;;;;8.60;4.00;;;;;;;-2.26;100.00;95916.59;5036865;28;20445;-50
2021/01/20 06:23:26;;;;;;;5.38;2.80;;;;;;;-2.31;100.00;95909.06;5023350;28;20040;-54
2021/01/20 06:25:59;;;;;;;10.15;2.22;;;;;;;-2.36;100.00;95908.50;5031454;28;20591;-51
2021/01/20 06:28:26;;;;;;;6.57;3.20;;;;;;;-2.30;100.00;95912.50;5025778;28;20050;-54
2021/01/20 06:30:54;;;;;;;6.47;3.20;;;;;;;-2.21;100.00;95915.41;5031986;28;20064;-55
2021/01/20 06:33:22;;;;;;;5.05;2.92;;;;;;;-2.09;100.00;95911.38;5028041;28;20554;-56
2021/01/20 06:35:50;;;;;;;4.10;2.17;;;;;;;-2.01;100.00;95911.78;5040989;28;20081;-57
2021/01/20 06:38:39;;;;;;;8.23;3.10;;;;;;;-1.90;100.00;95916.38;5031713;28;20104;-53
2021/01/20 06:41:10;;;;;;;42.10;16.65;;;;;;;-1.69;100.00;95917.81;5029674;28;20041;-54
2021/01/20 06:43:42;;;;;;;171.65;66.30;;;;;;;-1.44;100.00;95906.97;5029834;28;20053;-54
2021/01/20 06:46:17;;;;;;;166.70;103.10;;;;;;;-1.27;100.00;95911.19;5028735;28;20069;-54
2021/01/20 06:49:07;;;;;;;15.95;10.93;;;;;;;-1.20;100.00;95907.34;5025759;28;20507;-50
2021/01/20 06:51:34;;;;;;;5.73;4.00;;;;;;;-1.14;100.00;95906.13;5033434;28;20095;-49
2021/01/20 06:54:08;;;;;;;4.40;2.10;;;;;;;-1.14;100.00;95905.31;5035489;28;20046;-52
2021/01/20 06:56:37;;;;;;;4.05;2.85;;;;;;;-1.17;100.00;95902.91;5031357;28;20539;-51
2021/01/20 06:59:24;;;;;;;6.45;5.72;;;;;;;-1.12;100.00;95906.06;5034651;28;20057;-49
2021/01/20 07:02:10;;;;;;;9.55;6.85;;;;;;;-1.07;100.00;95902.28;5027242;28;20049;-56
2021/01/20 07:05:05;;;;;;;1.90;1.33;;;;;;;-1.03;100.00;95893.44;5025807;28;20076;-50
2021/01/20 07:08:05;;;;;;;2.53;1.33;;;;;;;-0.96;100.00;95899.09;5022988;28;20115;-53
2021/01/20 07:10:47;;;;;;;;;;;;;;;-1.15;100.00;95896.72;5026603;28;20474;-53
2021/01/20 07:13:20;;;;;;;2.22;1.20;;;;;;;-1.55;100.00;95903.28;5024618;28;19924;-50
2021/01/20 07:15:54;;;;;;;2.85;1.27;;;;;;;-1.63;100.00;95910.63;5023288;28;20049;-50
2021/01/20 07:18:24;;;;;;;2.65;1.67;;;;;;;-1.47;100.00;95903.72;5025611;28;20250;-53
2021/01/20 07:20:52;;;;;;;6.45;1.80;;;;;;;-1.50;100.00;95911.63;5030844;28;20048;-52
2021/01/20 07:23:19;;;;;;;2.97;1.60;;;;;;;-1.40;100.00;95902.44;5032619;28;20413;-50
2021/01/20 07:25:48;;;;;;;3.75;1.48;;;;;;;-1.39;100.00;95901.53;5023307;28;20049;-48
2021/01/20 07:28:15;;;;;;;3.88;1.50;;;;;;;-1.24;100.00;95905.84;5032354;28;20043;-48
2021/01/20 07:33:27;;;;;;;6.63;1.33;;;;;;;-1.07;100.00;95901.44;5025169;28;22575;-48
2021/01/20 07:35:54;;;;;;;4.20;1.50;;;;;;;-1.04;100.00;95894.34;5036322;28;20080;-49
2021/01/20 07:38:40;;;;;;;3.17;1.58;;;;;;;-0.87;100.00;95898.56;5021371;28;20041;-53
2021/01/20 07:41:14;;;;;;;3.72;2.10;;;;;;;-0.78;100.00;95897.19;5023997;28;20052;-51
2021/01/20 07:43:41;;;;;;;6.13;2.20;;;;;;;-0.76;99.92;95895.34;5026225;28;20403;-48
2021/01/20 07:46:16;;;;;;;6.78;2.42;;;;;;;-0.73;99.82;95892.56;5028121;28;20580;-48
2021/01/20 07:48:44;;;;;;;4.78;2.10;;;;;;;-0.60;100.00;95901.28;5031100;28;20137;-49
2021/01/20 07:51:15;;;;;;;5.57;2.50;;;;;;;-0.52;99.04;95895.66;5043580;28;20116;-48
2021/01/20 07:53:55;;;;;;;4.65;2.40;;;;;;;-0.56;97.28;95894.19;5029181;28;20125;-49
2021/01/20 07:56:22;;;;;;;4.45;2.38;;;;;;;-0.45;97.45;95894.38;5036729;28;20515;-49
2021/01/20 07:58:49;;;;;;;4.50;2.58;;;;;;;-0.43;96.19;95889.94;5034389;28;20041;-54
2021/01/20 08:01:25;;;;;;;7.85;2.15;;;;;;;-0.33;96.08;95895.41;5025685;28;20049;-50
2021/01/20 08:03:53;;;;;;;4.80;2.97;;;;;;;-0.34;96.28;95885.97;5027842;28;20405;-51
2021/01/20 08:06:20;;;;;;;5.68;3.20;;;;;;;-0.07;97.13;95892.06;5023786;28;20506;-52
2021/01/20 08:08:54;;;;;;;4.85;2.85;;;;;;;0.24;95.07;95892.75;5039278;28;20048;-52
2021/01/20 08:11:21;;;;;;;5.35;2.08;;;;;;;0.11;93.39;95891.88;5035256;28;20041;-48
2021/01/20 08:13:49;;;;;;;5.07;2.03;;;;;;;0.27;93.17;95896.91;5036361;28;20697;-51
2021/01/20 08:16:16;;;;;;;4.40;2.75;;;;;;;0.41;93.81;95892.56;5033524;28;20096;-52
2021/01/20 08:18:45;;;;;;;6.70;3.15;;;;;;;0.65;92.97;95894.50;5022123;28;20046;-52
2021/01/20 08:21:12;;;;;;;10.82;6.50;;;;;;;0.77;93.47;95901.50;5022252;28;20041;-48
2021/01/20 08:23:48;;;;;;;8.70;4.90;;;;;;;0.80;92.93;95898.72;5031693;28;20077;-48
2021/01/20 08:26:16;;;;;;;6.15;3.97;;;;;;;0.95;91.71;95889.09;5015140;28;20451;-48
2021/01/20 08:29:01;;;;;;;8.07;4.20;;;;;;;0.88;90.61;95888.66;5032747;28;20504;-48
2021/01/20 08:31:28;;;;;;;7.27;3.80;;;;;;;0.79;86.82;95886.69;5020192;28;20411;-48
2021/01/20 08:34:17;;;;;;;12.40;8.18;;;;;;;1.21;88.92;95883.97;5021527;28;20431;-50
2021/01/20 08:37:00;;;;;;;7.53;4.43;;;;;;;1.16;85.51;95890.28;5027942;28;20041;-50
2021/01/20 08:39:27;;;;;;;;;;;;;;;1.36;84.67;95886.38;5029480;28;20360;-49
2021/01/20 08:42:13;;;;;;;;;;;;;;;1.54;84.91;95888.66;5030169;28;19955;-51
2021/01/20 08:44:40;;;;;;;;;;;;;;;1.65;82.04;95878.38;5030999;28;19978;-51
2021/01/20 08:47:08;;;;;;;;;;;;;;;1.75;81.79;95876.81;5017706;28;19921;-48
2021/01/20 08:49:36;;;;;;;;;;;;;;;1.92;81.12;95878.25;5030534;28;19920;-49
2021/01/20 08:52:03;;;;;;;;;;;;;;;2.02;80.27;95875.84;5034704;28;19924;-47
2021/01/20 08:54:30;;;;;;;;;;;;;;;2.12;79.68;95874.25;5037212;28;19928;-51
2021/01/20 08:57:12;;;;;;;;;;;;;;;1.90;81.62;95880.13;5026775;28;19925;-51
2021/01/20 08:59:52;;;;;;;;;;;;;;;2.28;82.07;95881.84;5024014;28;19921;-50
2021/01/20 09:02:19;;;;;;;;;;;;;;;2.43;81.50;95870.31;5016939;28;19921;-52
2021/01/20 09:04:47;;;;;;;;;;;;;;;2.49;81.96;95869.91;5019409;28;20375;-47
2021/01/20 09:07:14;;;;;;;;;;;;;;;2.60;81.05;95869.13;5022729;28;19921;-52
2021/01/20 09:09:41;;;;;;;;;;;;;;;3.07;80.15;95865.66;5019574;28;19932;-54
2021/01/20 09:12:09;;;;;;;13.13;5.95;;;;;;;3.19;78.94;95873.50;5030564;28;20019;-53
2021/01/20 09:14:38;;;;;;;9.63;5.15;;;;;;;3.56;76.70;95876.78;5027693;28;20041;-51
2021/01/20 09:17:06;;;;;;;9.40;4.80;;;;;;;3.65;75.42;95876.09;5040441;28;20503;-48
2021/01/20 09:19:34;;;;;;;9.30;5.32;;;;;;;4.31;72.86;95867.56;5025396;28;20038;-52
2021/01/20 09:22:02;;;;;;;9.98;4.53;;;;;;;4.75;71.59;95871.88;5031226;28;20052;-48
2021/01/20 09:24:31;;;;;;;8.25;4.30;;;;;;;4.76;70.72;95866.50;5025018;28;20500;-49
2021/01/20 09:26:58;;;;;;;7.90;4.50;;;;;;;4.62;70.75;95871.19;5030734;28;20088;-50
2021/01/20 09:29:28;;;;;;;7.10;4.10;;;;;;;4.58;70.34;95872.41;5019496;28;20103;-49
2021/01/20 09:31:56;;;;;;;7.40;3.78;;;;;;;4.48;71.40;95875.72;5026069;28;20063;-55
2021/01/20 09:34:24;;;;;;;5.95;3.17;;;;;;;4.60;71.66;95875.69;5030523;28;20045;-48
2021/01/20 09:36:51;;;;;;;5.00;3.08;;;;;;;4.69;70.65;95880.19;5024858;28;20459;-52
2021/01/20 09:39:19;;;;;;;4.93;2.88;;;;;;;4.76;69.47;95881.34;5032754;28;20103;-50
2021/01/20 09:41:47;;;;;;;6.30;2.60;;;;;;;4.79;69.97;95875.91;5005686;28;20173;-50
2021/01/20 09:44:14;;;;;;;4.78;2.85;;;;;;;4.78;69.98;95869.00;5024817;28;20044;-50
2021/01/20 09:46:41;;;;;;;6.13;2.85;;;;;;;4.67;70.50;95871.63;5034276;28;20135;-51
2021/01/20 09:49:08;;;;;;;6.75;2.95;;;;;;;4.42;71.68;95872.78;5028012;28;20052;-51
2021/01/20 09:51:35;;;;;;;4.85;2.60;;;;;;;4.50;72.89;95871.19;5028034;28;20488;-48
2021/01/20 09:54:02;;;;;;;3.85;2.50;;;;;;;4.74;71.50;95881.47;5035008;28;20459;-53
2021/01/20 09:56:31;;;;;;;5.47;2.80;;;;;;;5.15;68.96;95861.59;5005397;28;20451;-48
2021/01/20 09:58:59;;;;;;;3.97;2.53;;;;;;;4.96;68.97;95864.91;5031998;28;20099;-49
2021/01/20 10:01:26;;;;;;;5.65;2.72;;;;;;;4.74;69.25;95855.34;5024568;28;20045;-51
2021/01/20 10:03:55;;;;;;;6.57;2.70;;;;;;;4.76;69.35;95869.13;5034016;28;20046;-48
2021/01/20 10:06:22;;;;;;;3.85;2.45;;;;;;;5.20;68.89;95838.53;5019031;28;20037;-50
2021/01/20 10:08:49;;;;;;;4.57;2.70;;;;;;;5.45;68.68;95834.72;5012082;28;20416;-51
2021/01/20 10:11:17;;;;;;;9.57;2.50;;;;;;;5.85;66.63;95831.34;5030092;28;20402;-50
2021/01/20 10:14:03;;;;;;;4.38;2.20;;;;;;;5.89;65.58;95821.44;5008381;28;20046;-48
2021/01/20 10:16:30;;;;;;;3.42;2.25;;;;;;;6.49;65.13;95824.13;5032533;28;20036;-49
2021/01/20 10:18:58;;;;;;;4.15;2.20;;;;;;;6.70;63.69;95818.78;5021985;28;20124;-51
2021/01/20 10:21:25;;;;;;;6.43;2.38;;;;;;;6.81;61.79;95814.25;5021004;28;20050;-50
2021/01/20 10:23:51;;;;;;;3.03;2.10;;;;;;;7.08;61.42;95810.09;5034787;28;20120;-50
2021/01/20 10:26:23;;;;;;;5.32;2.20;;;;;;;7.22;60.13;95804.41;5023206;28;20061;-50
2021/01/20 10:28:50;;;;;;;3.58;2.10;;;;;;;7.34;59.62;95805.94;5029077;28;20049;-51
2021/01/20 10:31:18;;;;;;;4.13;2.17;;;;;;;7.35;58.50;95804.97;5033233;28;20759;-52
2021/01/20 10:33:45;;;;;;;2.80;1.90;;;;;;;7.38;58.37;95796.81;5033433;28;20426;-52
2021/01/20 10:36:13;;;;;;;3.38;2.17;;;;;;;6.90;59.38;95795.06;5019125;28;20080;-53
2021/01/20 10:38:40;;;;;;;4.90;1.90;;;;;;;6.50;60.02;95797.78;5026967;28;20045;-52
2021/01/20 10:41:07;;;;;;;3.63;1.80;;;;;;;6.64;60.44;95788.72;5028063;28;20085;-49
2021/01/20 10:43:35;;;;;;;3.67;2.30;;;;;;;6.56;61.85;95786.78;5018553;28;20046;-51
2021/01/20 10:46:03;;;;;;;3.53;1.85;;;;;;;6.30;61.98;95789.09;5032616;28;20042;-50
2021/01/20 10:48:30;;;;;;;3.00;1.92;;;;;;;6.23;62.16;95780.13;5030190;28;20547;-53
2021/01/20 10:50:57;;;;;;;4.32;2.22;;;;;;;6.35;62.38;95772.97;5037057;28;20531;-50
2021/01/20 10:53:43;;;;;;;7.65;2.22;;;;;;;6.42;62.11;95767.06;5032266;28;20060;-49
2021/01/20 10:56:11;;;;;;;3.38;2.20;;;;;;;6.42;61.87;95761.00;5040108;28;20598;-53
2021/01/20 10:58:38;;;;;;;2.60;1.80;;;;;;;6.34;60.70;95756.44;5026099;28;20042;-52
2021/01/20 11:01:05;;;;;;;4.28;2.00;;;;;;;6.50;60.32;95755.88;5023215;28;20524;-51
2021/01/20 11:03:34;;;;;;;3.42;1.88;;;;;;;6.44;60.35;95745.16;5011581;28;20100;-53
2021/01/20 11:06:01;;;;;;;3.22;1.80;;;;;;;6.65;60.42;95744.06;5038366;28;20091;-51
2021/01/20 11:08:28;;;;;;;6.80;3.25;;;;;;;6.92;61.21;95732.03;5023894;28;20068;-50
2021/01/20 11:10:55;;;;;;;12.18;5.78;;;;;;;7.13;60.66;95729.25;5033341;28;20037;-53
2021/01/20 11:13:41;;;;;;;12.27;6.78;;;;;;;7.16;60.39;95731.59;5021900;28;20463;-52
2021/01/20 11:16:08;;;;;;;9.15;4.32;;;;;;;7.25;59.39;95725.47;5031983;28;20106;-49
2021/01/20 11:18:36;;;;;;;18.17;10.00;;;;;;;7.12;60.24;95730.19;5032555;28;20046;-52
2021/01/20 11:21:04;;;;;;;13.27;7.53;;;;;;;6.73;60.78;95724.19;5027628;28;20159;-52
2021/01/20 11:23:35;;;;;;;5.10;3.22;;;;;;;6.53;60.84;95718.13;5026264;28;20041;-47
2021/01/20 11:26:04;;;;;;;5.55;3.45;;;;;;;6.73;59.24;95716.31;5038809;28;20126;-52
2021/01/20 11:28:33;;;;;;;10.63;4.40;;;;;;;6.67;60.32;95707.22;5034280;28;20068;-49
2021/01/20 11:31:01;;;;;;;9.20;4.75;;;;;;;6.72;60.23;95705.03;5030462;28;20855;-51
2021/01/20 11:33:38;;;;;;;8.23;4.60;;;;;;;6.70;60.73;95693.84;5028607;28;20059;-48
2021/01/20 11:36:06;;;;;;;7.95;4.50;;;;;;;6.56;61.39;95694.28;5031122;28;20052;-49
2021/01/20 11:38:50;;;;;;;10.85;6.53;;;;;;;5.89;62.37;95685.41;5029170;28;20095;-46
2021/01/20 11:41:18;;;;;;;23.60;13.52;;;;;;;5.74;63.06;95692.78;5015973;28;20069;-50
2021/01/20 11:43:45;;;;;;;9.90;6.82;;;;;;;5.90;63.56;95682.63;5022225;28;20049;-47
2021/01/20 11:46:12;;;;;;;6.18;3.55;;;;;;;5.86;63.89;95681.25;5028967;28;20095;-46
2021/01/20 11:48:40;;;;;;;4.13;2.35;;;;;;;5.86;63.86;95683.03;5038910;28;20049;-50
2021/01/20 11:51:07;;;;;;;5.72;2.80;;;;;;;5.71;64.28;95682.56;5032969;28;20682;-51
2021/01/20 11:53:34;;;;;;;;;;;;;;;5.58;64.82;95680.22;5017723;28;20617;-48
2021/01/20 11:56:01;;;;;;;;;;;;;;;5.66;64.91;95674.31;5031669;28;19921;-48
2021/01/20 11:58:29;;;;;;;4.55;2.78;;;;;;;5.80;64.48;95665.25;5034973;28;19973;-52
2021/01/20 12:00:56;;;;;;;4.72;2.95;;;;;;;5.97;63.57;95659.41;5021749;28;20548;-49
2021/01/20 12:03:24;;;;;;;6.15;3.78;;;;;;;5.99;63.93;95654.88;5052804;23;20045;-48